Time;durP1;ratioP1;P1;durP2;ratioP2;P2;SDS_P1;SDS_P2;PMS_P1;PMS_P2;Temp;Humidity;BMP_temperature;BMP_pressure;BME280_temperature;BME280_humidity;BME280_pressure;Samples;Min_cycle;Max_cycle;Signal;HPM_P1;HPM_P2
2022/02/06 00:02:19;;;;;;;39.65;17.30;;;4.90;56.70;;;;;;5055208;28;20147;-84
2022/02/06 00:04:51;;;;;;;37.38;15.48;;;4.90;56.80;;;;;;5055556;28;20064;-81
2022/02/06 00:07:18;;;;;;;29.50;14.63;;;4.90;57.10;;;;;;5055611;28;20045;-80
2022/02/06 00:09:46;;;;;;;25.85;12.68;;;4.90;56.80;;;;;;5037639;28;20033;-84
2022/02/06 00:12:15;;;;;;;25.92;13.00;;;4.90;57.00;;;;;;5039224;28;20022;-80
2022/02/06 00:14:41;;;;;;;25.58;11.93;;;4.90;56.90;;;;;;5038637;28;20044;-80
2022/02/06 00:17:09;;;;;;;20.17;10.75;;;4.90;57.10;;;;;;5055231;28;20037;-84
2022/02/06 00:25:50;;;;;;;16.50;8.95;;;4.90;57.00;;;;;;5054872;28;20075;-82
2022/02/06 00:34:15;;;;;;;37.60;17.00;;;4.80;57.20;;;;;;5056310;28;20040;-80
2022/02/06 00:39:05;;;;;;;37.75;17.40;;;4.80;57.40;;;;;;5053817;28;20040;-80
2022/02/06 00:41:34;;;;;;;48.67;22.67;;;4.70;57.70;;;;;;5055194;28;20470;-84
2022/02/06 00:44:07;;;;;;;42.28;22.15;;;4.70;57.60;;;;;;5037938;28;20052;-84
2022/02/06 00:46:38;;;;;;;39.03;20.05;;;4.80;57.70;;;;;;5038164;28;20029;-80
2022/02/06 00:49:48;;;;;;;41.92;18.05;;;4.80;57.60;;;;;;5054719;28;20041;-84
2022/02/06 00:55:39;;;;;;;39.10;17.98;;;4.80;57.60;;;;;;5053722;28;20539;-80
2022/02/06 00:58:08;;;;;;;49.55;18.80;;;4.80;57.40;;;;;;5037804;28;20128;-81
2022/02/06 01:00:34;;;;;;;60.00;23.20;;;4.70;57.50;;;;;;5038127;28;20129;-84
2022/02/06 01:03:00;;;;;;;79.93;29.05;;;4.70;57.60;;;;;;5054452;28;20032;-83
2022/02/06 01:05:26;;;;;;;62.42;26.25;;;4.70;57.70;;;;;;5037547;28;20041;-83
2022/02/06 01:07:55;;;;;;;;;;;4.60;57.80;;;;;;5054698;28;20079;-84
2022/02/06 01:10:23;;;;;;;66.32;27.50;;;4.60;57.10;;;;;;5053722;28;19921;-80
2022/02/06 01:12:57;;;;;;;58.53;26.05;;;4.50;57.70;;;;;;5053923;28;20036;-83
2022/02/06 01:15:30;;;;;;;50.75;22.27;;;4.40;57.80;;;;;;5054381;28;20045;-84
2022/02/06 01:18:02;;;;;;;51.05;22.30;;;4.30;58.10;;;;;;5038034;28;20025;-84
2022/02/06 01:20:43;;;;;;;45.90;22.23;;;4.30;58.40;;;;;;5038424;28;20087;-84
2022/02/06 01:23:28;;;;;;;47.95;22.58;;;4.30;58.50;;;;;;5039351;28;20033;-84
2022/02/06 01:26:03;;;;;;;37.78;17.65;;;4.20;58.50;;;;;;5053284;28;20444;-80
2022/02/06 01:28:43;;;;;;;34.47;15.98;;;4.10;58.70;;;;;;5053984;28;20033;-83
2022/02/06 01:33:55;;;;;;;33.35;14.82;;;4.00;58.90;;;;;;5053871;28;20501;-84
2022/02/06 01:39:10;;;;;;;28.20;11.70;;;3.90;58.90;;;;;;5052568;28;20036;-83
2022/02/06 01:41:42;;;;;;;30.55;13.65;;;3.80;59.00;;;;;;5053967;28;20033;-84
2022/02/06 02:01:42;;;;;;;32.33;14.27;;;3.30;59.60;;;;;;5053305;28;20134;-81
2022/02/06 02:04:21;;;;;;;23.85;13.30;;;3.30;59.60;;;;;;5039566;28;20080;-80
2022/02/06 02:07:20;;;;;;;27.58;11.65;;;3.20;59.60;;;;;;5037297;28;20080;-83
2022/02/06 02:10:07;;;;;;;25.17;11.32;;;3.10;59.70;;;;;;5038346;28;20494;-80
2022/02/06 02:32:51;;;;;;;20.67;9.70;;;2.70;60.70;;;;;;5037057;28;20124;-81
2022/02/06 02:46:42;;;;;;;19.92;9.55;;;2.50;60.80;;;;;;5039320;28;20056;-84
2022/02/06 02:49:20;;;;;;;19.10;8.88;;;2.40;60.70;;;;;;5034849;28;20067;-79
2022/02/06 02:51:48;;;;;;;16.60;8.05;;;2.30;60.90;;;;;;5051314;28;20049;-83
2022/02/06 02:54:22;;;;;;;15.20;7.25;;;2.30;61.00;;;;;;5052152;28;20041;-83
2022/02/06 03:00:17;;;;;;;21.23;12.45;;;2.20;61.20;;;;;;5033042;28;20494;-83
2022/02/06 03:02:43;;;;;;;19.73;10.80;;;2.10;61.30;;;;;;5033474;28;20039;-83
2022/02/06 03:05:14;;;;;;;18.48;9.88;;;2.00;61.40;;;;;;5016336;28;20053;-80
2022/02/06 03:07:40;;;;;;;18.80;9.50;;;2.00;61.60;;;;;;5032059;28;20040;-80
2022/02/06 03:10:09;;;;;;;;;;;1.90;61.80;;;;;;5051666;28;20091;-81
2022/02/06 03:12:46;;;;;;;20.35;8.95;;;1.80;61.30;;;;;;5035376;28;20358;-84
2022/02/06 03:18:14;;;;;;;14.65;7.93;;;1.80;60.70;;;;;;5052256;28;19919;-80
2022/02/06 03:20:41;;;;;;;15.45;7.38;;;1.80;61.40;;;;;;5051975;28;20041;-80
2022/02/06 03:23:09;;;;;;;19.90;8.15;;;1.80;61.50;;;;;;5035490;28;20061;-83
2022/02/06 03:26:04;;;;;;;15.27;8.13;;;1.80;61.70;;;;;;5051336;28;20044;-80
2022/02/06 03:28:32;;;;;;;15.65;7.25;;;1.80;61.70;;;;;;5049140;28;20071;-80
2022/02/06 03:31:07;;;;;;;14.52;7.40;;;1.80;61.70;;;;;;5052082;28;20032;-79
2022/02/06 03:33:56;;;;;;;13.60;7.38;;;1.70;61.90;;;;;;5052096;28;20120;-79
2022/02/06 03:36:25;;;;;;;14.10;6.55;;;1.70;61.90;;;;;;5051838;28;20493;-80
2022/02/06 03:38:56;;;;;;;14.52;7.50;;;1.70;61.40;;;;;;5051482;28;20095;-80
2022/02/06 03:41:30;;;;;;;13.73;7.32;;;1.70;62.00;;;;;;5051165;28;20402;-80
2022/02/06 03:44:22;;;;;;;19.30;9.98;;;1.70;62.00;;;;;;5035209;28;20041;-79
2022/02/06 03:52:28;;;;;;;15.75;7.32;;;1.60;61.70;;;;;;5051970;28;20436;-83
2022/02/06 03:54:55;;;;;;;17.55;7.47;;;1.60;61.60;;;;;;5034823;28;20501;-83
2022/02/06 03:57:22;;;;;;;16.75;7.68;;;1.60;61.70;;;;;;5051512;28;20040;-80
2022/02/06 03:59:48;;;;;;;18.42;7.93;;;1.50;62.10;;;;;;5051733;28;20035;-83
2022/02/06 04:02:34;;;;;;;19.67;9.57;;;1.50;62.10;;;;;;5051931;28;20061;-83
2022/02/06 04:05:09;;;;;;;14.68;7.22;;;1.40;61.90;;;;;;5035289;28;20036;-79
2022/02/06 04:07:38;;;;;;;17.20;7.45;;;1.40;61.30;;;;;;5052508;28;20037;-83
2022/02/06 04:10:19;;;;;;;19.15;8.88;;;1.40;61.80;;;;;;5034876;28;20037;-79
2022/02/06 04:13:05;;;;;;;12.98;6.72;;;1.40;61.90;;;;;;5032657;28;20406;-79
2022/02/06 04:18:27;;;;;;;13.35;6.22;;;1.40;62.10;;;;;;5031552;28;20103;-79
2022/02/06 04:20:53;;;;;;;11.35;5.72;;;1.30;62.10;;;;;;5032542;28;20037;-82
2022/02/06 04:23:22;;;;;;;12.05;6.40;;;1.30;62.20;;;;;;5048024;28;20418;-78
2022/02/06 04:26:02;;;;;;;14.50;6.50;;;1.30;62.30;;;;;;5041756;28;20080;-83
2022/02/06 04:28:32;;;;;;;12.55;6.30;;;1.30;62.40;;;;;;5054766;28;20124;-79
2022/02/06 04:34:01;;;;;;;13.90;6.40;;;1.20;62.40;;;;;;5000805;28;20057;-79
2022/02/06 04:36:34;;;;;;;;;;;1.20;62.30;;;;;;5014542;28;20026;-82
2022/02/06 05:33:39;;;;;;;12.43;6.05;;;0.70;62.80;;;;;;5054828;28;20454;-79
2022/02/06 05:36:11;;;;;;;13.10;6.20;;;0.60;62.20;;;;;;5036938;28;20389;-82
2022/02/06 05:38:51;;;;;;;13.18;6.38;;;0.60;62.80;;;;;;5053144;28;20078;-78
2022/02/06 05:41:17;;;;;;;12.00;5.93;;;0.60;62.90;;;;;;5036180;28;20047;-83
2022/02/06 05:43:43;;;;;;;;;;;0.60;62.80;;;;;;5037368;28;20486;-79
2022/02/06 05:46:17;;;;;;;18.05;6.30;;;0.50;62.60;;;;;;5036801;28;20007;-81
2022/02/06 05:48:50;;;;;;;13.18;6.20;;;0.50;62.60;;;;;;5036970;28;20036;-79
2022/02/06 05:51:18;;;;;;;14.30;6.43;;;0.50;62.70;;;;;;5053549;28;20035;-83
2022/02/06 05:53:54;;;;;;;12.27;6.57;;;0.50;62.60;;;;;;5034791;28;20371;-83
2022/02/06 05:56:31;;;;;;;12.32;6.43;;;0.50;62.80;;;;;;5037075;28;20041;-83
2022/02/06 05:58:58;;;;;;;16.30;7.00;;;0.50;62.80;;;;;;5054554;28;20125;-81
2022/02/06 06:01:27;;;;;;;15.30;7.72;;;0.40;62.60;;;;;;5053228;28;20024;-79
2022/02/06 06:03:59;;;;;;;14.60;7.97;;;0.40;62.80;;;;;;5036910;28;20041;-82
2022/02/06 06:06:26;;;;;;;16.10;8.30;;;0.40;62.90;;;;;;5036637;28;20033;-83
2022/02/06 06:09:12;;;;;;;16.90;8.00;;;0.40;62.80;;;;;;5054291;28;20051;-83
2022/02/06 06:11:46;;;;;;;29.27;8.73;;;0.40;63.00;;;;;;5052387;28;20040;-83
2022/02/06 06:14:19;;;;;;;19.75;8.57;;;0.40;62.70;;;;;;5052978;28;20044;-82
2022/02/06 06:16:49;;;;;;;21.48;8.45;;;0.40;62.80;;;;;;5053229;28;20398;-83
2022/02/06 06:19:15;;;;;;;19.80;8.32;;;0.40;62.80;;;;;;5052859;28;20559;-78
2022/02/06 06:21:44;;;;;;;;;;;0.40;62.90;;;;;;5036720;28;20439;-82
2022/02/06 06:24:17;;;;;;;24.52;12.80;;;0.40;62.70;;;;;;5036640;28;20003;-83
2022/02/06 06:26:51;;;;;;;23.10;13.82;;;0.40;62.60;;;;;;5036291;28;20048;-83
2022/02/06 06:29:26;;;;;;;32.25;16.00;;;0.40;63.00;;;;;;5052706;28;20063;-82
2022/02/06 06:31:56;;;;;;;27.08;12.25;;;0.40;62.40;;;;;;5052951;28;20561;-79
2022/02/06 06:34:23;;;;;;;26.30;12.38;;;0.40;63.00;;;;;;5052945;28;20041;-78
2022/02/06 06:36:52;;;;;;;22.20;11.05;;;0.40;62.90;;;;;;5053730;28;20031;-82
2022/02/06 06:39:32;;;;;;;30.98;12.55;;;0.40;63.20;;;;;;5036265;28;20046;-78
2022/02/06 06:42:00;;;;;;;33.33;15.25;;;0.40;63.20;;;;;;5037234;28;20493;-82
2022/02/06 06:44:26;;;;;;;17.08;10.23;;;0.40;63.00;;;;;;5052505;28;20037;-79
2022/02/06 06:46:52;;;;;;;;;;;0.50;63.20;;;;;;5052872;28;20120;-83
2022/02/06 06:49:18;;;;;;;19.38;9.68;;;0.50;62.40;;;;;;5051371;28;19956;-83
2022/02/06 06:51:53;;;;;;;;;;;0.50;62.90;;;;;;5052438;28;20116;-82
2022/02/06 06:54:22;;;;;;;31.10;13.18;;;0.50;62.20;;;;;;5036456;28;19960;-79
2022/02/06 07:05:27;;;;;;;37.97;19.23;;;0.60;62.80;;;;;;5053589;28;20448;-83
2022/02/06 07:07:56;;;;;;;32.03;17.87;;;0.60;63.00;;;;;;5053174;28;20037;-83
2022/02/06 07:10:22;;;;;;;39.38;21.55;;;0.70;62.80;;;;;;5035944;28;20060;-83
2022/02/06 07:12:49;;;;;;;65.40;30.15;;;0.80;62.80;;;;;;5034607;28;20040;-83
2022/02/06 07:15:17;;;;;;;91.47;39.70;;;0.80;63.70;;;;;;5052310;28;20100;-83
2022/02/06 07:18:01;;;;;;;96.20;39.75;;;0.90;62.70;;;;;;5035299;28;20025;-83
2022/02/06 07:20:32;;;;;;;101.07;43.97;;;0.90;62.90;;;;;;5051826;28;20506;-79
2022/02/06 07:23:00;;;;;;;101.82;41.20;;;1.00;62.70;;;;;;5020515;28;20095;-79
2022/02/06 07:25:29;;;;;;;51.53;26.23;;;1.00;62.60;;;;;;5051813;28;20064;-79
2022/02/06 07:27:59;;;;;;;79.95;38.53;;;1.10;62.90;;;;;;5033959;28;20033;-83
2022/02/06 07:30:26;;;;;;;131.70;52.50;;;1.20;62.90;;;;;;5051996;28;20044;-80
2022/02/06 07:32:53;;;;;;;37.25;21.45;;;1.20;62.90;;;;;;5048806;28;20478;-83
2022/02/06 07:35:21;;;;;;;37.92;21.23;;;1.30;63.20;;;;;;5052254;28;20033;-79
2022/02/06 07:37:58;;;;;;;42.20;21.35;;;1.30;63.20;;;;;;5052626;28;20064;-82
2022/02/06 07:40:27;;;;;;;28.67;16.48;;;1.40;63.30;;;;;;5036059;28;20072;-83
2022/02/06 07:42:53;;;;;;;26.92;15.68;;;1.50;63.50;;;;;;5033341;28;20044;-83
2022/02/06 07:45:39;;;;;;;34.58;17.65;;;1.50;62.60;;;;;;5051973;28;20045;-79
2022/02/06 07:48:12;;;;;;;33.60;16.50;;;1.60;62.80;;;;;;5053004;28;20405;-80
2022/02/06 07:50:43;;;;;;;31.13;15.48;;;1.70;63.50;;;;;;5035641;28;20417;-79
2022/02/06 07:53:11;;;;;;;27.35;13.75;;;1.80;63.40;;;;;;5034633;28;20049;-78
2022/02/06 07:55:39;;;;;;;31.50;15.68;;;1.90;63.50;;;;;;5053030;28;20544;-83
2022/02/06 07:58:06;;;;;;;28.00;13.13;;;2.00;63.70;;;;;;5034205;28;20132;-83
2022/02/06 08:00:32;;;;;;;24.65;14.13;;;2.20;63.70;;;;;;5053383;28;20040;-79
2022/02/06 08:02:58;;;;;;;28.33;13.65;;;2.30;63.60;;;;;;5055352;28;20052;-83
2022/02/06 08:05:27;;;;;;;27.33;14.43;;;2.40;63.60;;;;;;5055327;28;20444;-79
2022/02/06 08:07:56;;;;;;;28.42;14.43;;;2.60;63.60;;;;;;5056498;28;20098;-84
2022/02/06 08:10:24;;;;;;;33.17;18.02;;;2.70;63.40;;;;;;5055537;28;20036;-79
2022/02/06 08:13:06;;;;;;;41.60;22.40;;;2.90;63.30;;;;;;5038335;28;20041;-83
2022/02/06 08:15:37;;;;;;;33.47;19.42;;;2.90;62.90;;;;;;5040027;28;20063;-82
2022/02/06 08:18:06;;;;;;;30.27;17.20;;;3.00;62.80;;;;;;5052647;28;20087;-83
2022/02/06 08:20:38;;;;;;;35.80;18.73;;;3.10;63.00;;;;;;5021897;28;20064;-83
2022/02/06 08:23:07;;;;;;;63.40;26.88;;;3.20;63.00;;;;;;5038864;28;20036;-79
2022/02/06 08:25:38;;;;;;;38.88;19.42;;;3.30;63.10;;;;;;5038490;28;20044;-80
2022/02/06 08:28:04;;;;;;;30.08;14.10;;;3.50;63.00;;;;;;5037406;28;20056;-82
2022/02/06 08:30:38;;;;;;;30.88;16.95;;;3.60;62.40;;;;;;5038199;28;20459;-82
2022/02/06 08:33:08;;;;;;;33.05;16.73;;;3.80;62.80;;;;;;5038178;28;20033;-80
2022/02/06 08:35:54;;;;;;;42.53;21.17;;;4.00;62.60;;;;;;5054636;28;20041;-80
2022/02/06 08:38:23;;;;;;;37.85;18.30;;;4.30;62.40;;;;;;5055139;28;20064;-80
2022/02/06 08:41:12;;;;;;;29.58;15.57;;;4.50;62.10;;;;;;5054120;28;20045;-80
2022/02/06 08:43:44;;;;;;;26.88;14.27;;;4.80;61.50;;;;;;5029205;28;20045;-82
2022/02/06 08:46:10;;;;;;;28.70;16.15;;;5.10;61.30;;;;;;5054639;28;20490;-80
2022/02/06 08:48:39;;;;;;;27.27;14.30;;;5.40;60.80;;;;;;5054390;28;20037;-83
2022/02/06 08:51:15;;;;;;;28.88;14.15;;;6.60;58.70;;;;;;5055093;28;20457;-80
2022/02/06 08:53:41;;;;;;;23.45;13.82;;;8.40;55.10;;;;;;5053611;28;20048;-80
2022/02/06 08:56:08;;;;;;;41.88;21.02;;;10.30;51.50;;;;;;5037810;28;20071;-80
2022/02/06 08:58:36;;;;;;;30.30;17.45;;;11.80;48.50;;;;;;5054484;28;20060;-80
2022/02/06 09:01:02;;;;;;;24.67;13.50;;;12.90;47.00;;;;;;5054047;28;20065;-82
2022/02/06 09:03:31;;;;;;;23.65;13.35;;;13.70;44.50;;;;;;5053986;28;20079;-80
2022/02/06 09:06:07;;;;;;;25.75;13.85;;;14.50;43.20;;;;;;5053903;28;20508;-80
2022/02/06 09:08:37;;;;;;;24.98;13.68;;;14.80;41.20;;;;;;5054104;28;20044;-81
2022/02/06 09:11:09;;;;;;;17.05;9.90;;;15.40;41.00;;;;;;5053488;28;20033;-79
2022/02/06 09:13:35;;;;;;;15.30;7.70;;;15.40;39.90;;;;;;5036236;28;20032;-80
2022/02/06 09:16:04;;;;;;;14.45;7.57;;;15.50;40.50;;;;;;5054669;28;20060;-80
2022/02/06 09:18:32;;;;;;;12.70;7.10;;;15.70;39.70;;;;;;5036311;28;20083;-80
2022/02/06 09:20:58;;;;;;;17.88;10.10;;;16.00;37.80;;;;;;5053766;28;20060;-85
2022/02/06 09:23:28;;;;;;;16.08;8.93;;;15.60;39.00;;;;;;5037041;28;20044;-84
2022/02/06 09:26:17;;;;;;;13.48;7.38;;;15.60;40.60;;;;;;5052392;28;20413;-85
2022/02/06 09:28:53;;;;;;;13.13;7.20;;;16.20;39.30;;;;;;5051567;28;20029;-81
2022/02/06 09:31:26;;;;;;;11.40;5.85;;;15.10;39.90;;;;;;5029238;28;20030;-80
2022/02/06 09:36:37;;;;;;;10.65;5.45;;;13.70;42.90;;;;;;5037192;28;20032;-84
2022/02/06 09:39:10;;;;;;;11.50;5.65;;;13.30;43.10;;;;;;5043971;28;20433;-81
2022/02/06 09:41:58;;;;;;;12.82;7.18;;;13.10;44.20;;;;;;5036839;28;20031;-84
2022/02/06 09:44:29;;;;;;;11.90;6.85;;;14.10;42.80;;;;;;5036158;28;20049;-81
2022/02/06 09:47:04;;;;;;;12.50;6.82;;;15.30;39.00;;;;;;5054203;28;20029;-80
2022/02/06 09:49:32;;;;;;;10.57;5.35;;;15.00;39.40;;;;;;5036542;28;20047;-84
2022/02/06 09:51:59;;;;;;;10.90;5.60;;;14.30;40.00;;;;;;5036541;28;20021;-84
2022/02/06 09:54:33;;;;;;;10.43;6.28;;;13.60;41.50;;;;;;5054187;28;20088;-81
2022/02/06 09:57:10;;;;;;;13.05;5.78;;;13.90;42.00;;;;;;5037434;28;20112;-84
2022/02/06 09:59:38;;;;;;;10.32;6.00;;;14.70;40.30;;;;;;5037035;28;20048;-84
2022/02/06 10:02:09;;;;;;;11.27;6.32;;;14.60;41.00;;;;;;5036755;28;20028;-80
2022/02/06 10:04:37;;;;;;;8.95;4.72;;;14.70;39.80;;;;;;5052979;28;20490;-80
2022/02/06 10:07:43;;;;;;;12.73;5.28;;;14.50;40.40;;;;;;5049988;28;20029;-84
2022/02/06 10:10:13;;;;;;;8.82;4.57;;;14.20;41.00;;;;;;5042323;28;20061;-84
2022/02/06 10:13:02;;;;;;;9.90;4.75;;;14.20;40.80;;;;;;5046965;28;20029;-81
2022/02/06 10:15:32;;;;;;;9.70;4.10;;;14.10;41.10;;;;;;5054364;28;20087;-84
2022/02/06 10:17:58;;;;;;;;;;;14.10;41.30;;;;;;5053751;28;20029;-81
2022/02/06 10:20:31;;;;;;;9.20;4.55;;;13.80;42.10;;;;;;5036146;28;19974;-80
2022/02/06 10:23:04;;;;;;;10.80;3.90;;;14.00;42.20;;;;;;5053296;28;20462;-81
2022/02/06 10:25:43;;;;;;;10.05;4.55;;;14.00;41.00;;;;;;5036654;28;20064;-84
2022/02/06 10:30:57;;;;;;;8.65;4.30;;;15.10;39.60;;;;;;5052908;28;20064;-82
2022/02/06 10:34:00;;;;;;;10.55;4.28;;;14.40;39.90;;;;;;5052514;28;20056;-81
2022/02/06 10:36:45;;;;;;;9.90;5.32;;;14.60;40.00;;;;;;5052162;28;20468;-80
2022/02/06 10:39:22;;;;;;;9.15;4.65;;;15.20;39.70;;;;;;5053725;28;20037;-84
2022/02/06 10:41:48;;;;;;;10.38;5.15;;;15.20;39.00;;;;;;5052488;28;20033;-80
2022/02/06 10:44:15;;;;;;;;;;;15.30;39.10;;;;;;5035431;28;20041;-81
2022/02/06 10:47:01;;;;;;;13.43;6.13;;;15.70;39.10;;;;;;5035659;28;19913;-79
2022/02/06 10:49:31;;;;;;;12.70;5.28;;;15.50;39.00;;;;;;5052232;28;20044;-83
2022/02/06 10:52:26;;;;;;;9.52;4.90;;;15.20;39.20;;;;;;5035613;28;20033;-81
2022/02/06 10:54:56;;;;;;;9.02;5.43;;;15.10;39.30;;;;;;5052334;28;20052;-85
2022/02/06 10:57:23;;;;;;;14.50;5.32;;;15.10;38.90;;;;;;5049388;28;20041;-81
2022/02/06 10:59:53;;;;;;;11.98;5.72;;;15.00;39.60;;;;;;5052707;28;20040;-85
2022/02/06 11:02:57;;;;;;;13.25;5.82;;;15.70;38.90;;;;;;5015480;28;20068;-85
2022/02/06 11:05:47;;;;;;;12.02;5.47;;;16.00;38.00;;;;;;5044200;28;20515;-80
2022/02/06 11:08:43;;;;;;;9.52;5.38;;;16.20;38.10;;;;;;5052297;28;20517;-81
2022/02/06 11:11:17;;;;;;;14.43;8.70;;;17.20;36.90;;;;;;5018056;28;20049;-81
2022/02/06 11:13:43;;;;;;;18.00;8.70;;;17.90;35.40;;;;;;5034271;28;20079;-81
2022/02/06 11:16:29;;;;;;;;;;;19.10;34.10;;;;;;5051864;28;20432;-82
2022/02/06 11:18:56;;;;;;;12.77;6.93;;;18.50;35.10;;;;;;5052864;28;19977;-82
2022/02/06 11:21:29;;;;;;;25.20;8.98;;;17.80;35.60;;;;;;5052029;28;20497;-81
2022/02/06 11:24:06;;;;;;;16.23;6.65;;;17.80;35.90;;;;;;5050647;28;20127;-81
2022/02/06 11:26:32;;;;;;;16.85;8.77;;;18.00;35.60;;;;;;5052369;28;20025;-80
2022/02/06 11:28:59;;;;;;;13.10;7.85;;;18.10;35.10;;;;;;5050797;28;20502;-87
2022/02/06 11:31:26;;;;;;;15.27;7.93;;;18.70;35.10;;;;;;5035386;28;20086;-81
2022/02/06 11:33:52;;;;;;;16.35;8.95;;;18.60;34.60;;;;;;5033411;28;20414;-81
2022/02/06 11:36:24;;;;;;;13.90;7.78;;;19.00;34.50;;;;;;5041324;28;20427;-81
2022/02/06 11:45:19;;;;;;;17.63;8.30;;;18.80;34.80;;;;;;5052323;28;20055;-83
2022/02/06 11:48:02;;;;;;;12.40;7.30;;;18.70;34.90;;;;;;5018679;28;20057;-82
2022/02/06 11:50:37;;;;;;;11.20;7.13;;;18.40;34.90;;;;;;5004094;28;20501;-83
2022/02/06 11:53:08;;;;;;;15.93;6.22;;;18.10;35.20;;;;;;5018397;28;20040;-82
2022/02/06 11:55:57;;;;;;;10.95;6.00;;;17.90;35.30;;;;;;5052519;28;20053;-82
2022/02/06 11:58:43;;;;;;;9.73;5.63;;;18.00;36.20;;;;;;5054882;28;20033;-82
2022/02/06 12:01:47;;;;;;;8.68;5.03;;;18.10;35.00;;;;;;5037243;28;20040;-83
2022/02/06 12:04:24;;;;;;;11.68;4.65;;;17.80;34.80;;;;;;5038303;28;20048;-80
2022/02/06 12:06:57;;;;;;;9.52;4.55;;;17.70;35.20;;;;;;5037579;28;20040;-84
2022/02/06 12:09:51;;;;;;;8.40;4.25;;;17.70;35.60;;;;;;5037068;28;20041;-85
2022/02/06 12:12:20;;;;;;;9.20;3.85;;;17.40;35.70;;;;;;5018317;28;20057;-81
2022/02/06 12:14:51;;;;;;;7.70;3.42;;;17.10;36.20;;;;;;5056917;28;20080;-80
2022/02/06 12:18:18;;;;;;;8.30;3.60;;;16.80;36.50;;;;;;5038897;28;20037;-80
2022/02/06 12:20:48;;;;;;;;;;;16.30;37.30;;;;;;5057184;28;20047;-80
2022/02/06 12:24:10;;;;;;;9.27;3.72;;;16.20;37.40;;;;;;5054288;28;19916;-83
2022/02/06 12:26:41;;;;;;;9.63;4.90;;;16.20;37.60;;;;;;5056068;28;20499;-80
2022/02/06 12:29:29;;;;;;;10.32;4.40;;;16.50;37.70;;;;;;5054403;28;20116;-84
2022/02/06 12:32:29;;;;;;;8.20;3.92;;;16.90;37.20;;;;;;5034963;28;20038;-85
2022/02/06 12:37:44;;;;;;;11.75;6.22;;;17.10;36.70;;;;;;5053057;28;20040;-81
2022/02/06 12:40:33;;;;;;;16.58;9.18;;;17.60;36.80;;;;;;5034120;28;20542;-82
2022/02/06 12:43:01;;;;;;;12.25;6.10;;;18.00;35.70;;;;;;5039099;28;20033;-79
2022/02/06 12:45:30;;;;;;;11.27;5.60;;;17.70;36.20;;;;;;5052891;28;20033;-83
2022/02/06 12:48:19;;;;;;;13.73;7.00;;;17.20;36.80;;;;;;5054015;28;20428;-80
2022/02/06 12:50:54;;;;;;;13.98;6.00;;;17.10;37.70;;;;;;5054063;28;20045;-83
2022/02/06 12:53:21;;;;;;;12.57;6.72;;;17.20;37.10;;;;;;5036843;28;20083;-78
2022/02/06 12:55:48;;;;;;;;;;;17.20;37.20;;;;;;5037780;28;20043;-82
2022/02/06 12:58:28;;;;;;;14.38;7.95;;;17.50;37.40;;;;;;5054016;28;19963;-80
2022/02/06 13:00:55;;;;;;;9.77;4.45;;;17.80;35.90;;;;;;5035793;28;20080;-79
2022/02/06 13:03:42;;;;;;;14.23;6.80;;;17.90;36.30;;;;;;5053842;28;20039;-79
2022/02/06 13:06:13;;;;;;;7.33;3.20;;;18.40;35.70;;;;;;5054896;28;20063;-82
2022/02/06 13:08:43;;;;;;;15.85;3.13;;;18.80;34.70;;;;;;5053501;28;20083;-78
2022/02/06 13:11:20;;;;;;;7.53;2.95;;;20.90;32.20;;;;;;5053463;28;20033;-78
2022/02/06 13:14:14;;;;;;;5.68;1.75;;;23.60;28.10;;;;;;5053733;28;20199;-78
2022/02/06 13:17:03;;;;;;;7.20;3.45;;;24.80;25.60;;;;;;5052503;28;20132;-81
2022/02/06 13:22:34;;;;;;;;;;;25.20;25.30;;;;;;5053521;28;20053;-80
2022/02/06 13:25:29;;;;;;;4.95;2.20;;;25.50;24.80;;;;;;5053876;28;20011;-79
2022/02/06 13:28:09;;;;;;;4.93;2.10;;;24.60;25.20;;;;;;5054586;28;20049;-82
2022/02/06 13:39:38;;;;;;;8.23;2.88;;;25.20;24.90;;;;;;5053357;28;20098;-81
2022/02/06 13:42:32;;;;;;;6.78;2.78;;;26.80;23.40;;;;;;5036531;28;20033;-78
2022/02/06 13:45:23;;;;;;;6.68;3.97;;;27.70;22.40;;;;;;5036785;28;20067;-81
2022/02/06 13:47:51;;;;;;;6.72;3.00;;;28.10;22.00;;;;;;5054060;28;20037;-81
2022/02/06 13:50:18;;;;;;;7.97;3.03;;;28.60;21.00;;;;;;5052815;28;20462;-78
2022/02/06 13:52:46;;;;;;;14.55;5.47;;;28.70;20.40;;;;;;5052629;28;20375;-78
2022/02/06 13:55:16;;;;;;;6.50;3.53;;;29.10;20.60;;;;;;5035802;28;20454;-81
2022/02/06 13:57:45;;;;;;;5.65;2.00;;;29.20;19.50;;;;;;5052188;28;20482;-78
2022/02/06 14:00:30;;;;;;;4.80;1.83;;;28.70;19.10;;;;;;5051577;28;20394;-78
2022/02/06 14:03:02;;;;;;;5.57;2.00;;;27.70;20.10;;;;;;5052600;28;20052;-82
2022/02/06 14:05:31;;;;;;;4.88;2.05;;;27.20;21.50;;;;;;5050737;28;20087;-79
2022/02/06 14:08:18;;;;;;;4.10;1.70;;;27.10;20.80;;;;;;5052343;28;20064;-79
2022/02/06 14:11:02;;;;;;;4.03;1.65;;;27.30;20.40;;;;;;5052603;28;20056;-83
2022/02/06 14:13:33;;;;;;;4.70;1.55;;;26.60;20.30;;;;;;5036606;28;20037;-83
2022/02/06 14:16:18;;;;;;;5.07;2.40;;;26.10;21.60;;;;;;5052477;28;20040;-79
2022/02/06 14:19:30;;;;;;;13.93;7.78;;;25.90;21.70;;;;;;5052578;28;20033;-73
2022/02/06 14:22:33;;;;;;;15.13;8.07;;;25.60;21.50;;;;;;5035215;28;20036;-73
2022/02/06 14:28:14;;;;;;;16.20;9.57;;;21.50;25.70;;;;;;5052692;28;20103;-73
2022/02/06 14:30:54;;;;;;;9.25;4.70;;;19.50;28.50;;;;;;5050945;28;20048;-73
2022/02/06 14:33:27;;;;;;;8.95;4.00;;;18.50;30.60;;;;;;5053225;28;20025;-74
2022/02/06 14:36:05;;;;;;;6.80;3.35;;;17.60;32.00;;;;;;5051612;28;20037;-80
2022/02/06 14:38:53;;;;;;;10.13;5.07;;;17.00;33.30;;;;;;5051924;28;20178;-81
2022/02/06 14:44:15;;;;;;;5.75;2.17;;;16.20;35.30;;;;;;5036152;28;20501;-73
2022/02/06 14:46:44;;;;;;;5.95;2.50;;;16.80;34.60;;;;;;5050481;28;20039;-73
2022/02/06 14:49:27;;;;;;;12.43;4.95;;;17.90;32.90;;;;;;5051283;28;20447;-79
2022/02/06 14:51:59;;;;;;;8.45;3.40;;;18.60;31.30;;;;;;5052634;28;20067;-78
2022/02/06 14:54:43;;;;;;;7.40;2.90;;;18.60;30.90;;;;;;5051744;28;20440;-80
2022/02/06 14:57:10;;;;;;;8.60;4.28;;;18.30;31.50;;;;;;5051507;28;20025;-79
2022/02/06 14:59:41;;;;;;;4.93;2.00;;;17.80;31.90;;;;;;5051485;28;20043;-78
2022/02/06 15:02:15;;;;;;;6.68;2.55;;;17.40;32.80;;;;;;5033560;28;20099;-79
2022/02/06 15:04:43;;;;;;;8.88;3.40;;;16.60;34.00;;;;;;5036143;28;20037;-73
2022/02/06 15:07:09;;;;;;;5.55;2.22;;;15.70;35.70;;;;;;5051101;28;20402;-73
2022/02/06 15:09:39;;;;;;;7.45;3.58;;;15.10;37.10;;;;;;5050672;28;20097;-77
2022/02/06 15:12:05;;;;;;;7.22;2.55;;;14.70;38.10;;;;;;5051095;28;20390;-78
2022/02/06 15:14:34;;;;;;;;;;;14.30;38.70;;;;;;5051968;28;20041;-72
2022/02/06 15:17:03;;;;;;;7.28;3.50;;;14.00;39.00;;;;;;5050202;28;20340;-75
2022/02/06 15:19:36;;;;;;;8.23;3.47;;;13.70;39.80;;;;;;5034421;28;20103;-73
2022/02/06 15:22:03;;;;;;;7.40;3.30;;;13.60;40.40;;;;;;5052225;28;20028;-78
2022/02/06 15:24:35;;;;;;;9.45;3.28;;;13.40;40.40;;;;;;5051256;28;20409;-78
2022/02/06 15:27:01;;;;;;;9.15;3.25;;;13.20;40.80;;;;;;5034879;28;20444;-79
2022/02/06 15:29:29;;;;;;;;;;;13.10;41.70;;;;;;5052906;28;20120;-78
2022/02/06 15:32:11;;;;;;;6.28;3.58;;;12.90;41.30;;;;;;5049757;28;19916;-74
2022/02/06 15:34:37;;;;;;;7.10;3.30;;;12.80;42.20;;;;;;5034204;28;20120;-73
2022/02/06 15:37:04;;;;;;;;;;;12.70;42.80;;;;;;5034678;28;20083;-78
2022/02/06 15:39:39;;;;;;;7.00;2.95;;;12.60;42.70;;;;;;5034615;28;20202;-73
2022/02/06 15:42:27;;;;;;;7.75;2.90;;;12.50;43.10;;;;;;5051997;28;20363;-74
2022/02/06 15:44:54;;;;;;;6.80;3.28;;;12.40;43.50;;;;;;5034265;28;20049;-78
2022/02/06 15:47:27;;;;;;;7.28;3.35;;;12.30;44.20;;;;;;5049808;28;20426;-73
2022/02/06 15:49:55;;;;;;;8.02;3.42;;;12.20;43.80;;;;;;5051244;28;20114;-74
2022/02/06 15:52:21;;;;;;;6.47;2.70;;;12.10;44.70;;;;;;5050612;28;20106;-73
2022/02/06 15:54:58;;;;;;;6.97;3.30;;;12.00;44.90;;;;;;5033933;28;20051;-78
2022/02/06 15:57:41;;;;;;;7.82;3.42;;;11.90;45.40;;;;;;5047822;28;20067;-73
2022/02/06 16:00:10;;;;;;;7.35;3.15;;;11.80;45.50;;;;;;5050373;28;20037;-78
2022/02/06 16:02:38;;;;;;;9.73;3.53;;;11.70;45.70;;;;;;5033343;28;20043;-77
2022/02/06 16:05:12;;;;;;;7.90;3.58;;;11.60;46.20;;;;;;5018591;28;20564;-73
2022/02/06 16:07:48;;;;;;;7.30;3.20;;;11.60;46.20;;;;;;5034298;28;20424;-73
2022/02/06 16:10:15;;;;;;;8.35;3.25;;;11.40;46.60;;;;;;5050553;28;20044;-73
2022/02/06 16:12:42;;;;;;;7.55;3.60;;;11.30;46.80;;;;;;5034388;28;20544;-73
2022/02/06 16:15:13;;;;;;;;;;;11.20;46.60;;;;;;5034598;28;20045;-73
2022/02/06 16:17:40;;;;;;;11.63;3.25;;;11.20;47.20;;;;;;5049854;28;19962;-77
2022/02/06 16:20:13;;;;;;;9.30;3.40;;;11.10;47.70;;;;;;5033724;28;20064;-73
2022/02/06 16:22:40;;;;;;;9.38;3.80;;;11.00;47.70;;;;;;5038124;28;20474;-72
2022/02/06 16:25:07;;;;;;;8.20;3.20;;;10.90;48.20;;;;;;5055794;28;20029;-73
2022/02/06 16:27:38;;;;;;;8.45;3.65;;;10.90;48.30;;;;;;5053013;28;20392;-78